createdAt,value
2023-04-15T00:40:54.215Z,9.10
2023-04-15T00:43:21.182Z,9.10
2023-04-15T00:45:49.027Z,9.10
2023-04-15T00:48:16.880Z,9.10
2023-04-15T00:50:44.317Z,9.10
2023-04-15T00:53:11.395Z,9.10
2023-04-15T00:55:38.775Z,9.10
2023-04-15T00:58:07.251Z,9.10
2023-04-15T01:00:47.177Z,9.00
2023-04-15T01:03:15.468Z,9.00
2023-04-15T01:05:43.532Z,9.00
2023-04-15T01:08:10.647Z,9.00
2023-04-15T01:10:38.044Z,8.90
2023-04-15T01:13:06.859Z,8.90
2023-04-15T01:15:36.221Z,8.90
2023-04-15T01:18:08.259Z,8.80
2023-04-15T01:20:36.352Z,8.80
2023-04-15T01:23:03.893Z,8.70
2023-04-15T01:25:34.343Z,8.70
2023-04-15T01:28:01.550Z,8.60
2023-04-15T01:30:28.587Z,8.60
2023-04-15T01:32:56.122Z,8.60
2023-04-15T01:35:24.161Z,8.60
2023-04-15T01:37:56.263Z,8.50
2023-04-15T01:44:09.653Z,8.50
2023-04-15T01:46:37.100Z,8.40
2023-04-15T01:49:06.855Z,8.40
2023-04-15T01:51:34.949Z,8.40
2023-04-15T01:54:02.008Z,8.40
2023-04-15T01:56:29.805Z,8.30
2023-04-15T01:58:57.059Z,8.30
2023-04-15T02:01:26.429Z,8.30
2023-04-15T02:03:56.784Z,8.30
2023-04-15T02:06:51.367Z,8.20
2023-04-15T02:10:09.204Z,8.30
2023-04-15T02:12:36.855Z,8.20
2023-04-15T02:15:05.046Z,8.20
2023-04-15T02:17:37.591Z,8.20
2023-04-15T02:20:06.388Z,8.10
2023-04-15T02:22:33.375Z,8.20
2023-04-15T02:25:01.139Z,8.10
2023-04-15T02:27:31.211Z,8.10
2023-04-15T02:29:58.190Z,8.00
2023-04-15T02:32:26.959Z,8.00
2023-04-15T02:34:56.592Z,8.00
2023-04-15T02:37:25.127Z,7.90
2023-04-15T02:39:52.095Z,7.90
2023-04-15T02:42:21.608Z,7.90
2023-04-15T02:44:49.357Z,7.90
2023-04-15T02:47:16.422Z,7.90
2023-04-15T02:49:43.867Z,7.90
2023-04-15T02:52:44.346Z,7.90
2023-04-15T02:58:26.000Z,7.90
2023-04-15T03:00:59.773Z,7.80
2023-04-15T03:03:28.316Z,7.90
2023-04-15T03:05:56.084Z,7.80
2023-04-15T03:08:24.464Z,7.90
2023-04-15T03:10:52.660Z,7.80
2023-04-15T03:13:19.818Z,7.80
2023-04-15T03:15:47.466Z,7.80
2023-04-15T03:18:14.960Z,7.80
2023-04-15T03:20:42.017Z,7.80
2023-04-15T03:23:09.685Z,7.80
2023-04-15T03:25:38.303Z,7.70
2023-04-15T03:28:05.757Z,7.70
2023-04-15T03:30:33.387Z,7.70
2023-04-15T03:33:00.554Z,7.70
2023-04-15T03:35:28.055Z,7.70
2023-04-15T03:37:55.057Z,7.70
2023-04-15T03:40:22.919Z,7.60
2023-04-15T03:42:52.030Z,7.60
2023-04-15T03:45:19.024Z,7.60
2023-04-15T03:47:46.691Z,7.60
2023-04-15T03:50:13.725Z,7.60
2023-04-15T03:52:41.292Z,7.60
2023-04-15T03:55:11.787Z,7.60
2023-04-15T03:57:40.018Z,7.50
2023-04-15T04:00:12.983Z,7.60
2023-04-15T04:02:40.339Z,7.60
2023-04-15T04:05:08.237Z,7.50
2023-04-15T04:07:36.053Z,7.50
2023-04-15T04:10:04.551Z,7.50
2023-04-15T04:12:31.574Z,7.50
2023-04-15T04:14:58.563Z,7.50
2023-04-15T04:17:26.979Z,7.50
2023-04-15T04:19:56.771Z,7.50
2023-04-15T04:22:24.626Z,7.50
2023-04-15T04:24:51.709Z,7.50
2023-04-15T04:27:18.996Z,7.40
2023-04-15T04:29:48.479Z,7.50
2023-04-15T04:32:15.868Z,7.50
2023-04-15T04:34:44.667Z,7.50
2023-04-15T04:37:11.738Z,7.40
2023-04-15T04:39:39.621Z,7.40
2023-04-15T04:42:07.184Z,7.50
2023-04-15T04:44:34.207Z,7.40
2023-04-15T04:47:01.863Z,7.40
2023-04-15T04:49:28.868Z,7.40
2023-04-15T04:51:58.294Z,7.40
2023-04-15T04:54:28.463Z,7.40
2023-04-15T04:56:57.866Z,7.40
2023-04-15T04:59:25.071Z,7.40
2023-04-15T05:01:52.163Z,7.30
2023-04-15T05:04:22.326Z,7.40
2023-04-15T05:06:49.310Z,7.30
2023-04-15T05:09:17.889Z,7.30
2023-04-15T05:11:45.279Z,7.30
2023-04-15T05:14:12.216Z,7.30
2023-04-15T05:16:39.543Z,7.30
2023-04-15T05:19:06.554Z,7.30
2023-04-15T05:21:38.994Z,7.20
2023-04-15T05:24:07.140Z,7.30
2023-04-15T05:26:36.025Z,7.30
2023-04-15T05:29:03.724Z,7.20
2023-04-15T05:31:31.008Z,7.30
2023-04-15T05:33:58.370Z,7.30
2023-04-15T05:36:26.325Z,7.30
2023-04-15T05:38:53.541Z,7.30
2023-04-15T05:41:21.184Z,7.20
2023-04-15T05:43:49.544Z,7.20
2023-04-15T05:46:17.319Z,7.30
2023-04-15T05:48:44.306Z,7.30
2023-04-15T05:51:11.784Z,7.30
2023-04-15T05:53:39.080Z,7.30
2023-04-15T05:56:06.822Z,7.30
2023-04-15T05:58:33.982Z,7.30
2023-04-15T06:01:02.991Z,7.40
2023-04-15T06:03:30.718Z,7.40
2023-04-15T06:05:59.968Z,7.40
2023-04-15T06:08:28.452Z,7.40
2023-04-15T06:10:55.754Z,7.50
2023-04-15T06:13:23.754Z,7.50
2023-04-15T06:15:50.765Z,7.50
2023-04-15T06:18:20.001Z,7.50
2023-04-15T06:20:47.252Z,7.60
2023-04-15T06:23:18.153Z,7.60
2023-04-15T06:25:45.114Z,7.70
2023-04-15T06:28:12.785Z,7.80
2023-04-15T06:30:40.130Z,7.80
2023-04-15T06:33:07.843Z,7.90
2023-04-15T06:35:40.587Z,7.90
2023-04-15T06:38:08.062Z,8.00
2023-04-15T06:40:35.969Z,8.10
2023-04-15T06:43:07.569Z,8.10
2023-04-15T06:45:34.649Z,8.20
2023-04-15T06:48:02.140Z,8.40
2023-04-15T06:50:29.232Z,8.50
2023-04-15T06:52:57.770Z,8.60
2023-04-15T06:55:24.755Z,8.80
2023-04-15T06:57:51.660Z,9.00
2023-04-15T07:00:20.310Z,9.20
2023-04-15T07:02:47.910Z,9.40
2023-04-15T07:05:15.013Z,9.60
2023-04-15T07:07:42.253Z,9.90
2023-04-15T07:10:12.044Z,10.10
2023-04-15T07:12:39.284Z,10.30
2023-04-15T07:15:07.580Z,10.50
2023-04-15T07:17:34.608Z,10.70
2023-04-15T07:20:01.925Z,10.90
2023-04-15T07:22:29.089Z,11.00
2023-04-15T07:24:56.107Z,11.20
2023-04-15T07:27:24.424Z,11.40
2023-04-15T07:29:52.343Z,11.40
2023-04-15T07:32:19.491Z,11.60
2023-04-15T07:34:46.558Z,11.70
2023-04-15T07:37:14.097Z,11.80
2023-04-15T07:39:41.832Z,11.80
2023-04-15T07:42:09.116Z,11.90
2023-04-15T07:44:37.851Z,11.90
2023-04-15T07:47:05.088Z,12.00
2023-04-15T07:49:32.183Z,12.20
2023-04-15T07:52:00.158Z,12.40
2023-04-15T07:54:27.551Z,12.50
2023-04-15T07:56:54.629Z,12.70
2023-04-15T07:59:21.778Z,12.80
2023-04-15T08:01:50.510Z,12.90
2023-04-15T08:04:17.870Z,13.00
2023-04-15T08:06:45.984Z,13.10
2023-04-15T08:09:13.056Z,13.20
2023-04-15T08:11:41.194Z,13.20
2023-04-15T08:14:08.210Z,13.30
2023-04-15T08:16:36.171Z,13.40
2023-04-15T08:19:04.908Z,13.50
2023-04-15T08:21:32.137Z,13.80
2023-04-15T08:24:00.400Z,14.10
2023-04-15T08:26:27.582Z,14.30
2023-04-15T08:28:55.324Z,14.40
2023-04-15T08:31:23.421Z,14.70
2023-04-15T08:33:53.568Z,14.90
2023-04-15T08:36:22.030Z,14.90
2023-04-15T08:38:49.422Z,15.00
2023-04-15T08:41:25.697Z,15.00
2023-04-15T08:43:55.030Z,15.20
2023-04-15T08:46:22.743Z,15.30
2023-04-15T08:48:50.763Z,15.40
2023-04-15T08:51:18.423Z,15.40
2023-04-15T08:53:49.568Z,15.60
2023-04-15T08:56:18.424Z,15.60
2023-04-15T08:58:46.548Z,15.80
2023-04-15T09:01:15.930Z,16.00
2023-04-15T09:03:43.904Z,16.00
2023-04-15T09:06:11.736Z,15.90
2023-04-15T09:08:39.003Z,16.10
2023-04-15T09:11:08.074Z,16.40
2023-04-15T09:13:35.183Z,16.80
2023-04-15T09:16:04.368Z,17.10
2023-04-15T09:18:32.878Z,17.40
2023-04-15T09:21:06.496Z,17.50
2023-04-15T09:23:34.170Z,17.70
2023-04-15T09:26:01.950Z,17.90
2023-04-15T09:28:31.703Z,17.80
2023-04-15T09:31:00.063Z,17.90
2023-04-15T09:33:29.868Z,18.00
2023-04-15T09:35:59.448Z,18.30
2023-04-15T09:38:27.311Z,18.50
2023-04-15T09:40:54.817Z,18.60
2023-04-15T09:43:23.119Z,18.60
2023-04-15T09:45:53.648Z,18.80
2023-04-15T09:48:23.120Z,19.10
2023-04-15T09:50:52.899Z,19.20
2023-04-15T09:53:21.263Z,19.30
2023-04-15T09:55:51.440Z,19.40
2023-04-15T09:58:19.494Z,19.30
2023-04-15T10:00:48.162Z,19.40
2023-04-15T10:03:20.749Z,19.60
2023-04-15T10:05:50.486Z,19.90
2023-04-15T10:08:19.486Z,19.90
2023-04-15T10:10:48.461Z,19.90
2023-04-15T10:13:18.622Z,19.90
2023-04-15T10:15:50.470Z,19.90
2023-04-15T10:18:21.905Z,20.00
2023-04-15T10:20:50.111Z,20.10
2023-04-15T10:23:18.971Z,20.30
2023-04-15T10:25:47.853Z,20.40
2023-04-15T10:28:16.900Z,20.40
2023-04-15T10:30:44.249Z,20.40
2023-04-15T10:33:12.322Z,20.40
2023-04-15T10:35:41.199Z,20.40
2023-04-15T10:38:33.707Z,20.30
2023-04-15T10:41:22.319Z,20.20
2023-04-15T10:43:51.666Z,20.10
2023-04-15T10:46:37.967Z,20.10
2023-04-15T10:49:11.325Z,20.30
2023-04-15T10:51:42.201Z,20.40
2023-04-15T10:54:13.556Z,20.50
2023-04-15T10:56:43.423Z,20.80
2023-04-15T10:59:10.548Z,21.00
2023-04-15T11:02:02.445Z,21.20
2023-04-15T11:04:55.183Z,21.40
2023-04-15T11:07:41.574Z,21.50
2023-04-15T11:10:51.367Z,21.50
2023-04-15T11:13:21.963Z,21.50
2023-04-15T11:15:50.364Z,21.60
2023-04-15T11:18:19.472Z,21.70
2023-04-15T11:20:48.041Z,21.90
2023-04-15T11:23:18.125Z,21.80
2023-04-15T11:25:46.109Z,21.80
2023-04-15T11:28:13.905Z,21.90
2023-04-15T11:30:42.801Z,22.00
2023-04-15T11:33:12.552Z,22.10
2023-04-15T11:35:41.461Z,22.30
2023-04-15T11:38:10.771Z,22.40
2023-04-15T11:40:40.302Z,22.40
2023-04-15T11:43:11.724Z,22.00
2023-04-15T11:45:48.749Z,21.80
2023-04-15T11:48:19.986Z,21.70
2023-04-15T11:50:52.970Z,21.60
2023-04-15T11:53:19.965Z,21.90
2023-04-15T11:55:51.134Z,22.10
2023-04-15T11:58:19.713Z,22.40
2023-04-15T12:00:48.732Z,22.30
2023-04-15T12:03:20.217Z,22.30
2023-04-15T12:06:13.362Z,22.40
2023-04-15T12:08:55.540Z,22.60
2023-04-15T12:11:35.003Z,22.70
2023-04-15T12:14:11.230Z,22.80
2023-04-15T12:16:49.149Z,22.90
2023-04-15T12:19:22.378Z,23.00
2023-04-15T12:21:49.936Z,23.30
2023-04-15T12:24:21.796Z,23.40
2023-04-15T12:26:52.692Z,23.50
2023-04-15T12:29:21.130Z,23.80
2023-04-15T12:31:53.617Z,23.80
2023-04-15T12:34:27.981Z,23.50
2023-04-15T12:36:55.416Z,23.10
2023-04-15T12:39:24.367Z,23.10
2023-04-15T12:41:53.391Z,23.10
2023-04-15T12:44:23.224Z,23.20
2023-04-15T12:46:50.787Z,23.20
2023-04-15T12:49:20.878Z,23.20
2023-04-15T12:51:49.378Z,23.20
2023-04-15T12:54:16.978Z,23.30
2023-04-15T12:56:44.209Z,23.40
2023-04-15T12:59:13.364Z,23.30
2023-04-15T13:01:41.419Z,22.90
2023-04-15T13:04:09.076Z,22.80
2023-04-15T13:06:38.523Z,23.10
2023-04-15T13:09:06.281Z,23.20
2023-04-15T13:11:33.972Z,23.20
2023-04-15T13:14:05.595Z,23.40
2023-04-15T13:16:34.645Z,23.50
2023-04-15T13:19:03.484Z,23.30
2023-04-15T13:21:34.978Z,22.70
2023-04-15T13:24:03.112Z,22.40
2023-04-15T13:26:31.466Z,22.20
2023-04-15T13:28:58.439Z,22.30
2023-04-15T13:31:25.719Z,22.60
2023-04-15T13:33:54.565Z,22.70
2023-04-15T13:36:24.493Z,22.90
2023-04-15T13:38:54.509Z,22.60
2023-04-15T13:41:21.945Z,22.30
2023-04-15T13:43:48.985Z,21.90
2023-04-15T13:46:16.232Z,21.50
2023-04-15T13:48:43.389Z,21.60
2023-04-15T13:51:11.716Z,21.90
2023-04-15T13:53:39.766Z,22.00
2023-04-15T13:56:07.414Z,21.80
2023-04-15T13:58:34.820Z,21.70
2023-04-15T14:01:04.708Z,21.60
2023-04-15T14:03:33.626Z,21.40
2023-04-15T14:06:01.025Z,21.00
2023-04-15T14:08:30.830Z,21.10
2023-04-15T14:10:57.870Z,21.20
2023-04-15T14:13:25.025Z,21.10
2023-04-15T14:15:52.078Z,20.90
2023-04-15T14:18:19.232Z,20.90
2023-04-15T14:20:46.345Z,20.70
2023-04-15T14:23:13.300Z,20.70
2023-04-15T14:25:45.520Z,20.80
2023-04-15T14:28:14.194Z,20.90
2023-04-15T14:30:41.850Z,20.60
2023-04-15T14:33:08.991Z,20.10
2023-04-15T14:35:36.796Z,19.60
2023-04-15T14:38:04.059Z,19.20
2023-04-15T14:40:31.028Z,19.00
2023-04-15T14:42:59.812Z,19.00
2023-04-15T14:45:27.060Z,18.90
2023-04-15T14:47:54.872Z,18.90
2023-04-15T14:50:22.368Z,18.80
2023-04-15T14:52:49.468Z,18.70
2023-04-15T14:55:16.783Z,18.40
2023-04-15T14:57:43.796Z,18.20
2023-04-15T15:00:15.965Z,17.90
2023-04-15T15:02:44.861Z,17.50
2023-04-15T15:05:12.706Z,17.20
2023-04-15T15:07:43.512Z,16.90
2023-04-15T15:10:10.738Z,16.70
2023-04-15T15:12:38.575Z,16.60
2023-04-15T15:15:15.480Z,16.50
2023-04-15T15:17:50.075Z,16.50
2023-04-15T15:20:17.927Z,16.80
2023-04-15T15:22:45.078Z,16.80
2023-04-15T15:25:12.119Z,16.70
2023-04-15T15:27:40.642Z,16.60
2023-04-15T15:30:09.058Z,16.40
2023-04-15T15:32:36.341Z,16.40
2023-04-15T15:35:05.816Z,16.20
2023-04-15T15:37:39.107Z,16.00
2023-04-15T15:40:08.126Z,15.90
2023-04-15T15:42:35.244Z,15.80
2023-04-15T15:45:04.204Z,15.60
2023-04-15T15:47:31.372Z,15.30
2023-04-15T15:49:58.370Z,15.10
2023-04-15T15:52:26.915Z,14.90
2023-04-15T15:54:53.925Z,14.80
2023-04-15T15:57:22.341Z,14.70
2023-04-15T15:59:51.153Z,14.70
2023-04-15T16:02:18.523Z,14.80
2023-04-15T16:04:46.573Z,14.70
2023-04-15T16:07:16.421Z,14.70
2023-04-15T16:09:47.697Z,14.70
2023-04-15T16:12:14.652Z,14.50
2023-04-15T16:14:43.361Z,14.40
2023-04-15T16:17:11.056Z,14.30
2023-04-15T16:19:38.078Z,14.20
2023-04-15T16:22:07.240Z,14.10
2023-04-15T16:24:35.043Z,14.00
2023-04-15T16:27:05.313Z,14.00
2023-04-15T16:29:32.391Z,13.90
2023-04-15T16:32:02.078Z,13.80
2023-04-15T16:34:32.317Z,13.60
2023-04-15T16:37:02.563Z,13.50
2023-04-15T16:39:32.804Z,13.40
2023-04-15T16:42:00.544Z,13.30
2023-04-15T16:44:29.350Z,13.20
2023-04-15T16:46:56.761Z,13.00
2023-04-15T16:49:27.127Z,13.00
2023-04-15T16:51:54.796Z,12.90
2023-04-15T16:54:22.355Z,12.90
2023-04-15T16:56:49.692Z,12.90
2023-04-15T16:59:16.822Z,12.80
2023-04-15T17:01:45.601Z,12.70
2023-04-15T17:04:13.582Z,12.60
2023-04-15T17:06:40.691Z,12.60
2023-04-15T17:09:08.073Z,12.60
2023-04-15T17:11:35.541Z,12.50
2023-04-15T17:14:04.106Z,12.50
2023-04-15T17:16:34.305Z,12.40
2023-04-15T17:19:02.741Z,12.40
2023-04-15T17:21:29.871Z,12.40
2023-04-15T17:23:56.923Z,12.30
2023-04-15T17:26:23.931Z,12.20
2023-04-15T17:28:51.139Z,12.20
2023-04-15T17:31:20.120Z,12.10
2023-04-15T17:33:56.387Z,12.00
2023-04-15T17:36:35.655Z,11.90
2023-04-15T17:39:05.868Z,11.90
2023-04-15T17:41:36.124Z,11.80
2023-04-15T17:44:03.980Z,11.70
2023-04-15T17:46:32.578Z,11.70
2023-04-15T17:48:59.628Z,11.60
2023-04-15T17:51:26.589Z,11.60
2023-04-15T17:53:54.965Z,11.50
2023-04-15T17:56:22.533Z,11.50
2023-04-15T17:58:49.624Z,11.50
2023-04-15T18:01:16.992Z,11.50
2023-04-15T18:03:46.889Z,11.50
2023-04-15T18:06:14.302Z,11.50
2023-04-15T18:08:41.453Z,11.50
2023-04-15T18:11:13.420Z,11.40
2023-04-15T18:13:43.753Z,11.40
2023-04-15T18:16:11.841Z,11.40
2023-04-15T18:18:38.921Z,11.40
2023-04-15T18:21:06.231Z,11.40
2023-04-15T18:23:33.554Z,11.30
2023-04-15T18:26:01.333Z,11.20
2023-04-15T18:28:31.857Z,11.20
2023-04-15T18:31:01.799Z,11.10
2023-04-15T18:33:32.366Z,11.00
2023-04-15T18:36:02.680Z,10.90
2023-04-15T18:38:30.566Z,10.90
2023-04-15T18:40:59.082Z,10.90
2023-04-15T18:43:26.214Z,10.90
2023-04-15T18:45:57.015Z,10.80
2023-04-15T18:48:27.065Z,10.70
2023-04-15T18:50:58.506Z,10.70
2023-04-15T18:53:25.666Z,10.60
2023-04-15T18:55:53.519Z,10.60
2023-04-15T18:58:20.839Z,10.60
2023-04-15T19:00:48.296Z,10.50
2023-04-15T19:03:16.847Z,10.50
2023-04-15T19:05:44.398Z,10.40
2023-04-15T19:08:12.656Z,10.40
2023-04-15T19:10:39.768Z,10.40
2023-04-15T19:13:10.588Z,10.30
2023-04-15T19:15:38.334Z,10.30
2023-04-15T19:18:10.406Z,10.30
2023-04-15T19:20:40.048Z,10.30
2023-04-15T19:23:08.481Z,10.30
2023-04-15T19:25:38.339Z,10.20
2023-04-15T19:28:05.552Z,10.20
2023-04-15T19:30:33.128Z,10.20
2023-04-15T19:33:00.126Z,10.20
2023-04-15T19:35:27.335Z,10.20
2023-04-15T19:37:57.032Z,10.20
2023-04-15T19:40:24.023Z,10.10
2023-04-15T19:42:54.277Z,10.10
2023-04-15T19:45:21.769Z,10.10
2023-04-15T19:47:48.781Z,10.10
2023-04-15T19:50:16.966Z,10.10
2023-04-15T19:52:44.266Z,10.00
2023-04-15T19:55:12.685Z,10.10
2023-04-15T19:57:40.908Z,10.10
2023-04-15T20:00:10.079Z,10.00
2023-04-15T20:02:37.610Z,10.00
2023-04-15T20:05:10.151Z,9.90
2023-04-15T20:07:37.247Z,9.90
2023-04-15T20:10:12.145Z,9.90
2023-04-15T20:12:50.432Z,9.90
2023-04-15T20:15:19.701Z,9.90
2023-04-15T20:17:49.840Z,9.90
2023-04-15T20:20:20.300Z,9.90
2023-04-15T20:22:50.326Z,9.90
2023-04-15T20:25:17.940Z,9.90
2023-04-15T20:27:46.770Z,9.90
2023-04-15T20:30:13.720Z,9.90
2023-04-15T20:32:42.563Z,9.90
2023-04-15T20:35:11.788Z,9.90
2023-04-15T20:37:40.798Z,9.80
2023-04-15T20:40:09.043Z,9.80
2023-04-15T20:42:36.979Z,9.80
2023-04-15T20:45:09.937Z,9.80
2023-04-15T20:47:37.161Z,9.80
2023-04-15T20:50:04.889Z,9.80
2023-04-15T20:52:32.281Z,9.80
2023-04-15T20:54:59.872Z,9.70
2023-04-15T20:57:33.498Z,9.70
2023-04-15T21:00:01.410Z,9.70
2023-04-15T21:02:30.043Z,9.70
2023-04-15T21:05:00.060Z,9.70
2023-04-15T21:07:27.053Z,9.70
2023-04-15T21:09:55.974Z,9.70
2023-04-15T21:12:22.992Z,9.70
2023-04-15T21:14:53.126Z,9.60
2023-04-15T21:17:20.795Z,9.60
2023-04-15T21:19:49.926Z,9.60
2023-04-15T21:22:16.959Z,9.60
2023-04-15T21:24:44.360Z,9.50
2023-04-15T21:27:11.395Z,9.50
2023-04-15T21:29:40.296Z,9.50
2023-04-15T21:32:07.661Z,9.50
2023-04-15T21:34:34.989Z,9.50
2023-04-15T21:37:03.885Z,9.50
2023-04-15T21:39:31.958Z,9.50
2023-04-15T21:41:59.412Z,9.50
2023-04-15T21:44:27.260Z,9.40
2023-04-15T21:46:54.340Z,9.40
2023-04-15T21:49:24.937Z,9.40
2023-04-15T21:51:52.867Z,9.40
2023-04-15T21:54:22.670Z,9.40
2023-04-15T21:56:50.857Z,9.40
2023-04-15T21:59:17.782Z,9.40
2023-04-15T22:01:45.522Z,9.40
2023-04-15T22:04:12.660Z,9.40
2023-04-15T22:06:40.399Z,9.40
2023-04-15T22:09:07.367Z,9.40
2023-04-15T22:11:35.722Z,9.40
2023-04-15T22:14:03.590Z,9.40
2023-04-15T22:16:30.642Z,9.40
2023-04-15T22:18:57.870Z,9.40
2023-04-15T22:21:24.987Z,9.40
2023-04-15T22:23:53.009Z,9.40
2023-04-15T22:26:41.895Z,9.40
2023-04-15T22:29:08.924Z,9.40
2023-04-15T22:31:36.762Z,9.40
2023-04-15T22:34:04.107Z,9.40
2023-04-15T22:36:31.744Z,9.40
2023-04-15T22:38:58.881Z,9.40
2023-04-15T22:41:26.345Z,9.40
2023-04-15T22:43:54.774Z,9.40
2023-04-15T22:46:21.752Z,9.40
2023-04-15T22:48:49.011Z,9.40
2023-04-15T22:51:22.028Z,9.40
2023-04-15T22:53:50.463Z,9.40
2023-04-15T22:56:20.590Z,9.40
2023-04-15T22:58:47.862Z,9.40
2023-04-15T23:01:17.911Z,9.40
2023-04-15T23:04:01.828Z,9.40
2023-04-15T23:06:32.436Z,9.40
2023-04-15T23:08:59.762Z,9.40
2023-04-15T23:11:26.772Z,9.40
2023-04-15T23:13:54.482Z,9.40
2023-04-15T23:16:22.849Z,9.40
2023-04-15T23:18:50.400Z,9.40
2023-04-15T23:21:17.304Z,9.40
2023-04-15T23:23:44.679Z,9.40
2023-04-15T23:26:11.635Z,9.40
2023-04-15T23:28:39.171Z,9.40
2023-04-15T23:31:07.513Z,9.40
2023-04-15T23:33:39.654Z,9.40
2023-04-15T23:36:07.318Z,9.40
2023-04-15T23:38:35.322Z,9.40
2023-04-15T23:41:03.144Z,9.40
2023-04-15T23:43:30.344Z,9.40
2023-04-15T23:45:57.802Z,9.40
2023-04-15T23:48:24.772Z,9.40
2023-04-15T23:50:53.698Z,9.30
2023-04-15T23:53:23.403Z,9.30
2023-04-15T23:55:50.642Z,9.30
2023-04-15T23:58:17.640Z,9.30
